Time;durP1;ratioP1;P1;durP2;ratioP2;P2;SDS_P1;SDS_P2;PMS_P1;PMS_P2;Temp;Humidity;BMP_temperature;BMP_pressure;BME280_temperature;BME280_humidity;BME280_pressure;Samples;Min_cycle;Max_cycle;Signal;HPM_P1;HPM_P2
2022/10/14 00:00:15;;;;;;;13.27;11.43;;;12.80;99.90;;;;;;5025617;28;20222;-50
2022/10/14 00:02:40;;;;;;;15.70;13.00;;;12.80;99.90;;;;;;5032282;28;20176;-50
2022/10/14 00:05:08;;;;;;;15.50;12.30;;;13.00;99.90;;;;;;5032119;28;20174;-51
2022/10/14 00:07:34;;;;;;;13.43;11.57;;;;;;;;;;5032723;28;20207;-49
2022/10/14 00:09:59;;;;;;;15.87;11.83;;;12.30;99.90;;;;;;5032093;28;20203;-50
2022/10/14 00:12:25;;;;;;;15.40;12.27;;;12.40;99.90;;;;;;5032642;28;20593;-51
2022/10/14 00:14:51;;;;;;;12.83;10.97;;;;;;;;;;5031077;28;20581;-51
2022/10/14 00:17:16;;;;;;;15.63;11.47;;;12.80;99.90;;;;;;5032473;28;20525;-51
2022/10/14 00:19:42;;;;;;;13.50;12.10;;;12.60;99.90;;;;;;5032167;28;20191;-48
2022/10/14 00:22:08;;;;;;;15.03;11.67;;;12.80;99.90;;;;;;5030314;28;20262;-49
2022/10/14 00:24:34;;;;;;;12.50;11.20;;;;;;;;;;5031636;28;20175;-53
2022/10/14 00:26:59;;;;;;;14.07;11.90;;;12.60;99.90;;;;;;5032307;28;20541;-52
2022/10/14 00:29:25;;;;;;;12.77;11.47;;;12.60;99.90;;;;;;5029475;28;20203;-50
2022/10/14 00:31:52;;;;;;;12.30;10.83;;;12.60;99.90;;;;;;5029516;28;20259;-53
2022/10/14 00:34:18;;;;;;;13.13;10.37;;;12.50;99.90;;;;;;5030938;28;20196;-50
2022/10/14 00:36:43;;;;;;;13.17;11.77;;;12.40;99.90;;;;;;5031763;28;20178;-48
2022/10/14 00:39:10;;;;;;;15.17;11.37;;;12.60;99.90;;;;;;5030890;28;20246;-49
2022/10/14 00:41:36;;;;;;;13.53;11.87;;;12.60;99.90;;;;;;5031445;28;20172;-49
2022/10/14 00:44:07;;;;;;;12.77;11.47;;;12.70;99.90;;;;;;5031555;28;20279;-48
2022/10/14 00:46:38;;;;;;;15.77;11.37;;;12.70;99.90;;;;;;5030292;28;20254;-51
2022/10/14 00:49:14;;;;;;;15.73;11.90;;;12.70;99.90;;;;;;5023699;28;20688;-48
2022/10/14 00:51:43;;;;;;;15.23;11.57;;;12.70;99.90;;;;;;5030687;28;20251;-50
2022/10/14 00:54:12;;;;;;;12.17;10.80;;;12.50;99.90;;;;;;5030698;28;20199;-54
2022/10/14 00:56:38;;;;;;;15.27;11.47;;;12.90;99.90;;;;;;5031848;28;20163;-49
2022/10/14 00:59:05;;;;;;;12.03;10.83;;;12.60;99.90;;;;;;5031538;28;20198;-53
2022/10/14 01:01:31;;;;;;;12.43;11.23;;;12.70;99.90;;;;;;5031565;28;20179;-49
2022/10/14 01:03:56;;;;;;;14.30;10.83;;;12.60;99.90;;;;;;5030001;28;20187;-49
2022/10/14 01:06:30;;;;;;;12.13;10.93;;;12.60;99.90;;;;;;5031388;28;20259;-51
2022/10/14 01:09:14;;;;;;;14.10;12.60;;;12.50;99.90;;;;;;5031157;28;20565;-53
2022/10/14 01:12:06;;;;;;;16.57;13.00;;;12.60;99.90;;;;;;5031562;28;20180;-48
2022/10/14 01:15:04;;;;;;;12.33;11.03;;;12.70;99.90;;;;;;5030681;28;20684;-49
2022/10/14 01:17:42;;;;;;;17.17;13.63;;;12.80;99.90;;;;;;4969440;28;20190;-49
2022/10/14 01:20:29;;;;;;;14.83;12.70;;;12.80;99.90;;;;;;4969972;28;20232;-48
2022/10/14 01:22:54;;;;;;;12.53;11.10;;;12.80;99.90;;;;;;4969820;28;20312;-49
2022/10/14 01:25:35;;;;;;;17.77;13.90;;;12.80;99.90;;;;;;4968371;28;20637;-50
2022/10/14 01:28:09;;;;;;;12.73;11.40;;;12.70;99.90;;;;;;4968722;28;20198;-51
2022/10/14 01:31:03;;;;;;;14.63;12.53;;;12.20;99.90;;;;;;4968945;28;20189;-51
2022/10/14 01:33:36;;;;;;;12.40;10.93;;;12.50;99.90;;;;;;4959432;28;20238;-52
2022/10/14 01:36:09;;;;;;;12.97;11.57;;;12.50;99.90;;;;;;4949423;28;20679;-48
2022/10/14 01:38:35;;;;;;;13.73;10.77;;;;;;;;;;4948788;29;20226;-53
2022/10/14 01:41:15;;;;;;;14.17;12.67;;;;;;;;;;4950100;28;20218;-51
2022/10/14 01:43:43;;;;;;;11.37;10.00;;;;;;;;;;4948325;29;20178;-49
2022/10/14 01:46:10;;;;;;;10.27;9.27;;;11.90;99.90;;;;;;4949096;29;20278;-50
2022/10/14 01:48:40;;;;;;;9.40;8.50;;;11.80;99.90;;;;;;4950431;29;20221;-50
2022/10/14 01:51:13;;;;;;;9.10;8.20;;;11.80;99.90;;;;;;4950028;29;20170;-49
2022/10/14 01:53:42;;;;;;;7.57;6.73;;;11.80;99.90;;;;;;5006535;28;20184;-51
2022/10/14 01:56:10;;;;;;;8.83;8.03;;;11.80;99.90;;;;;;5029174;28;20661;-52
2022/10/14 01:58:38;;;;;;;6.73;6.13;;;11.90;99.90;;;;;;5029976;28;20211;-53
2022/10/14 02:01:05;;;;;;;8.33;6.13;;;11.90;99.90;;;;;;5030525;28;20187;-50
2022/10/14 02:03:42;;;;;;;6.37;5.77;;;12.50;99.90;;;;;;5032467;28;20191;-48
2022/10/14 02:06:33;;;;;;;7.93;6.60;;;12.10;99.90;;;;;;5034780;28;20179;-49
2022/10/14 02:09:12;;;;;;;7.93;7.10;;;12.00;99.90;;;;;;5034455;28;20329;-51
2022/10/14 02:11:56;;;;;;;6.63;6.03;;;12.10;99.90;;;;;;5034503;28;20583;-52
2022/10/14 02:14:44;;;;;;;9.70;8.80;;;12.20;99.90;;;;;;5033350;28;20202;-51
2022/10/14 02:17:26;;;;;;;9.03;8.23;;;12.30;99.90;;;;;;5034478;28;20226;-50
2022/10/14 02:20:03;;;;;;;9.77;8.77;;;12.30;99.90;;;;;;5034318;28;20187;-50
2022/10/14 02:22:47;;;;;;;11.30;10.27;;;12.40;99.90;;;;;;5034833;28;20162;-48
2022/10/14 02:25:20;;;;;;;11.70;10.57;;;12.20;99.90;;;;;;5034119;28;20167;-50
2022/10/14 02:27:48;;;;;;;11.60;10.47;;;11.90;99.90;;;;;;5033689;28;20171;-48
2022/10/14 02:30:15;;;;;;;11.67;10.57;;;;;;;;;;5033871;28;20548;-51
2022/10/14 02:32:42;;;;;;;16.43;12.93;;;12.40;99.90;;;;;;5034252;28;20195;-48
2022/10/14 02:35:10;;;;;;;13.73;12.33;;;12.40;99.90;;;;;;5032819;28;20699;-53
2022/10/14 02:37:36;;;;;;;14.03;12.73;;;12.40;99.90;;;;;;5034034;28;20602;-49
2022/10/14 02:40:10;;;;;;;14.23;12.80;;;12.40;99.90;;;;;;5033814;28;20596;-52
2022/10/14 02:42:35;;;;;;;13.60;12.33;;;12.40;99.90;;;;;;5033730;28;20231;-49
2022/10/14 02:45:02;;;;;;;13.30;12.03;;;12.40;99.90;;;;;;5032571;28;20707;-48
2022/10/14 02:47:27;;;;;;;14.33;12.97;;;12.30;99.90;;;;;;5033875;28;20194;-53
2022/10/14 02:49:53;;;;;;;14.10;12.70;;;12.40;99.90;;;;;;5033612;28;20207;-54
2022/10/14 02:52:19;;;;;;;14.97;12.83;;;12.40;99.90;;;;;;5033363;28;20279;-53
2022/10/14 02:54:44;;;;;;;16.07;14.23;;;12.40;99.90;;;;;;5033381;28;20744;-50
2022/10/14 02:57:10;;;;;;;12.97;11.67;;;;;;;;;;5033772;28;20255;-52
2022/10/14 02:59:38;;;;;;;14.17;12.30;;;;;;;;;;5033708;28;20665;-50
2022/10/14 03:02:04;;;;;;;12.90;11.57;;;12.20;99.90;;;;;;5033433;28;20175;-50
2022/10/14 03:04:30;;;;;;;15.23;12.63;;;12.30;99.90;;;;;;5032746;28;20203;-49
2022/10/14 03:06:55;;;;;;;13.80;12.57;;;12.20;99.90;;;;;;5034021;28;20179;-52
2022/10/14 03:09:21;;;;;;;13.97;12.30;;;11.80;99.90;;;;;;5033302;28;20200;-49
2022/10/14 03:11:46;;;;;;;13.50;12.17;;;11.60;99.90;;;;;;5033599;28;20665;-50
2022/10/14 03:14:13;;;;;;;14.93;12.47;;;11.50;99.90;;;;;;5032189;28;20200;-51
2022/10/14 03:16:38;;;;;;;13.63;12.23;;;11.60;99.90;;;;;;5033702;28;20548;-52
2022/10/14 03:19:04;;;;;;;13.50;12.20;;;11.70;99.90;;;;;;5033324;28;20295;-53
2022/10/14 03:21:29;;;;;;;14.67;12.70;;;11.80;99.90;;;;;;5033613;28;20172;-55
2022/10/14 03:23:55;;;;;;;14.27;12.87;;;11.90;99.90;;;;;;5033068;28;20207;-54
2022/10/14 03:26:20;;;;;;;13.77;12.47;;;12.00;99.90;;;;;;5033425;28;20544;-53
2022/10/14 03:28:46;;;;;;;14.67;12.13;;;11.90;99.90;;;;;;5032419;28;20199;-53
2022/10/14 03:31:11;;;;;;;16.40;11.87;;;12.00;99.90;;;;;;5033130;28;20215;-52
2022/10/14 03:33:37;;;;;;;13.80;12.40;;;11.90;99.90;;;;;;5032046;28;20175;-53
2022/10/14 03:36:03;;;;;;;13.47;12.10;;;12.00;99.90;;;;;;5032498;28;20246;-53
2022/10/14 03:38:28;;;;;;;13.10;11.80;;;12.00;99.90;;;;;;5033142;28;20195;-51
2022/10/14 03:40:54;;;;;;;12.77;11.50;;;12.00;99.90;;;;;;5032583;28;20704;-54
2022/10/14 03:43:19;;;;;;;15.30;13.73;;;12.00;99.90;;;;;;5031268;28;20183;-49
2022/10/14 03:45:45;;;;;;;14.57;13.17;;;12.00;99.90;;;;;;5032722;28;20253;-51
2022/10/14 03:48:11;;;;;;;14.60;13.10;;;12.10;99.90;;;;;;5032891;28;20255;-54
2022/10/14 03:50:36;;;;;;;14.73;13.33;;;12.10;99.90;;;;;;5032738;28;20184;-53
2022/10/14 03:53:02;;;;;;;14.00;12.60;;;12.10;99.90;;;;;;5032376;28;20279;-53
2022/10/14 03:55:28;;;;;;;14.33;12.50;;;12.10;99.90;;;;;;5032533;28;20550;-49
2022/10/14 03:57:54;;;;;;;13.83;12.53;;;12.10;99.90;;;;;;5032637;28;20649;-48
2022/10/14 04:00:20;;;;;;;13.60;12.10;;;12.30;99.90;;;;;;5031902;28;20195;-49
2022/10/14 04:02:45;;;;;;;14.33;12.93;;;12.20;99.90;;;;;;5032518;28;20168;-49
2022/10/14 04:05:11;;;;;;;17.23;15.57;;;12.10;99.90;;;;;;5032609;28;20258;-49
2022/10/14 04:07:36;;;;;;;15.10;13.20;;;12.00;99.90;;;;;;5032215;28;20191;-48
2022/10/14 04:10:02;;;;;;;13.60;12.30;;;12.10;99.90;;;;;;5032192;28;20204;-48
2022/10/14 04:12:28;;;;;;;12.83;11.73;;;12.10;99.90;;;;;;5032508;28;20637;-48
2022/10/14 04:14:55;;;;;;;14.00;12.60;;;12.20;99.90;;;;;;5031833;28;20203;-50
2022/10/14 04:17:22;;;;;;;14.37;12.87;;;12.30;99.90;;;;;;5032336;28;20539;-51
2022/10/14 04:19:48;;;;;;;15.60;12.80;;;12.20;99.90;;;;;;5031527;28;20192;-48
2022/10/14 04:22:13;;;;;;;14.33;12.97;;;12.20;99.90;;;;;;5032542;28;20175;-50
2022/10/14 04:24:39;;;;;;;13.67;12.33;;;12.30;99.90;;;;;;5031790;28;20179;-49
2022/10/14 04:27:04;;;;;;;13.47;12.17;;;12.30;99.90;;;;;;5031073;28;20210;-49
2022/10/14 04:29:30;;;;;;;15.47;13.33;;;12.20;99.90;;;;;;5031750;28;20199;-48
2022/10/14 04:31:55;;;;;;;13.73;12.47;;;12.20;99.90;;;;;;5032206;28;20180;-49
2022/10/14 04:34:21;;;;;;;13.43;12.13;;;12.30;99.90;;;;;;5031863;28;20261;-49
2022/10/14 04:36:47;;;;;;;15.13;13.53;;;12.30;99.90;;;;;;5032416;28;20195;-48
2022/10/14 04:39:14;;;;;;;16.33;14.63;;;12.30;99.90;;;;;;5032068;28;20664;-50
2022/10/14 04:41:39;;;;;;;16.27;14.50;;;12.30;99.90;;;;;;5030730;28;20652;-50
2022/10/14 04:44:05;;;;;;;15.03;13.43;;;;;;;;;;5030421;28;20255;-48
2022/10/14 04:46:31;;;;;;;14.87;13.47;;;;;;;;;;5031542;28;20291;-50
2022/10/14 04:48:57;;;;;;;18.40;15.75;;;;;;;;;;5048070;22;20214;31
2022/10/14 04:51:23;;;;;;;17.63;15.90;;;12.30;99.90;;;;;;5006330;28;20448;-60
2022/10/14 04:53:49;;;;;;;14.70;13.33;;;12.30;99.90;;;;;;5010236;28;20548;-60
2022/10/14 04:56:14;;;;;;;18.10;14.40;;;12.30;99.90;;;;;;5010813;28;20168;-54
2022/10/14 04:58:40;;;;;;;14.07;12.67;;;12.30;99.90;;;;;;5011763;28;20684;-58
2022/10/14 05:01:05;;;;;;;16.60;12.87;;;12.30;99.90;;;;;;5011997;28;20699;-57
2022/10/14 05:03:31;;;;;;;15.87;14.20;;;12.30;99.90;;;;;;5011923;28;20248;-57
2022/10/14 05:05:58;;;;;;;15.43;13.83;;;12.30;99.90;;;;;;5012322;28;20172;-57
2022/10/14 05:08:24;;;;;;;15.73;14.13;;;12.20;99.90;;;;;;5008110;28;20656;-59
2022/10/14 05:10:49;;;;;;;13.80;12.50;;;12.20;99.90;;;;;;5012196;28;20219;-58
2022/10/14 05:13:15;;;;;;;13.47;12.27;;;12.20;99.90;;;;;;5011675;28;20263;-58
2022/10/14 05:15:40;;;;;;;14.80;13.30;;;12.20;99.90;;;;;;5012177;28;20200;-58
2022/10/14 05:18:06;;;;;;;14.27;12.97;;;12.20;99.90;;;;;;5012080;28;20177;-60
2022/10/14 05:20:31;;;;;;;16.27;14.67;;;12.20;99.90;;;;;;5011961;28;20196;-58
2022/10/14 05:22:57;;;;;;;16.37;14.67;;;12.20;99.90;;;;;;5012025;28;20180;-57
2022/10/14 05:25:23;;;;;;;17.47;15.40;;;12.10;99.90;;;;;;5008130;28;20188;-57
2022/10/14 05:27:48;;;;;;;18.97;16.53;;;12.20;99.90;;;;;;5010766;28;20176;-58
2022/10/14 05:30:15;;;;;;;18.40;16.50;;;12.00;99.90;;;;;;5010465;28;20678;-58
2022/10/14 05:32:41;;;;;;;17.53;15.83;;;11.80;99.90;;;;;;5010117;28;20172;-57
2022/10/14 05:35:07;;;;;;;16.53;14.83;;;11.90;99.90;;;;;;5010423;28;20208;-57
2022/10/14 05:37:32;;;;;;;16.83;15.10;;;11.90;99.90;;;;;;5011015;28;20247;-56
2022/10/14 05:39:58;;;;;;;17.43;15.53;;;11.90;99.90;;;;;;5011553;28;20200;-58
2022/10/14 05:42:23;;;;;;;16.80;15.00;;;11.90;99.90;;;;;;5011488;28;20274;-57
2022/10/14 05:44:49;;;;;;;18.13;16.13;;;12.00;99.90;;;;;;5010660;28;20195;-58
2022/10/14 05:47:15;;;;;;;18.17;16.33;;;12.00;99.90;;;;;;5011154;28;20211;-58
2022/10/14 05:49:40;;;;;;;18.83;16.97;;;11.90;99.90;;;;;;5010978;28;20214;-59
2022/10/14 05:52:06;;;;;;;18.23;16.50;;;11.80;99.90;;;;;;5010968;28;20180;-58
2022/10/14 05:54:31;;;;;;;18.37;16.47;;;11.90;99.90;;;;;;5011045;28;20192;-59
2022/10/14 05:56:57;;;;;;;17.60;15.90;;;12.00;99.90;;;;;;5010979;28;20200;-59
2022/10/14 05:59:23;;;;;;;19.30;17.37;;;12.00;99.90;;;;;;5008061;28;20204;-59
2022/10/14 06:01:48;;;;;;;21.87;19.33;;;12.00;99.90;;;;;;5011084;28;20842;-58
2022/10/14 06:04:18;;;;;;;19.73;17.43;;;;;;;;;;5010076;28;20203;-57
2022/10/14 06:06:44;;;;;;;20.60;18.43;;;;;;;;;;5011288;28;20180;-54
2022/10/14 06:09:10;;;;;;;19.93;17.83;;;;;;;;;;5010542;28;20555;-59
2022/10/14 06:11:36;;;;;;;22.03;19.73;;;12.40;99.90;;;;;;5011072;28;20708;-59
2022/10/14 06:14:01;;;;;;;20.43;18.37;;;12.20;99.90;;;;;;5010478;28;20180;-58
2022/10/14 06:16:27;;;;;;;18.57;16.77;;;12.20;99.90;;;;;;5011044;28;20523;-60
2022/10/14 06:18:52;;;;;;;19.93;17.47;;;12.20;99.90;;;;;;5010720;28;20183;-59
2022/10/14 06:21:18;;;;;;;24.17;21.57;;;12.30;99.90;;;;;;5010632;28;20179;-58
2022/10/14 06:23:44;;;;;;;21.50;17.53;;;12.20;99.90;;;;;;5009654;28;20224;-59
2022/10/14 06:26:09;;;;;;;18.73;17.00;;;12.30;99.90;;;;;;5010835;28;20307;-60
2022/10/14 06:28:36;;;;;;;21.60;19.40;;;12.30;99.90;;;;;;5009919;28;20176;-58
2022/10/14 06:31:02;;;;;;;20.27;18.37;;;12.30;99.90;;;;;;5009882;28;20639;-56
2022/10/14 06:33:28;;;;;;;20.20;18.13;;;12.30;99.90;;;;;;5010332;28;20274;-57
2022/10/14 06:35:54;;;;;;;20.43;18.23;;;12.30;99.90;;;;;;5010452;28;20239;-58
2022/10/14 06:38:20;;;;;;;20.43;18.43;;;12.40;99.90;;;;;;5010422;28;20268;-60
2022/10/14 06:40:48;;;;;;;18.73;16.87;;;12.40;99.90;;;;;;5010571;28;20192;-60
2022/10/14 06:43:14;;;;;;;21.13;19.13;;;12.30;99.90;;;;;;5009940;28;20173;-60
2022/10/14 06:45:39;;;;;;;20.13;18.10;;;12.30;99.90;;;;;;5011235;28;20192;-59
2022/10/14 06:48:05;;;;;;;19.97;17.93;;;12.20;99.90;;;;;;5012640;28;20230;-55
2022/10/14 06:50:31;;;;;;;19.70;17.70;;;12.20;99.90;;;;;;5014558;28;20219;-58
2022/10/14 06:52:56;;;;;;;21.97;19.57;;;12.30;99.90;;;;;;5014751;28;20172;-60
2022/10/14 06:55:22;;;;;;;20.63;18.27;;;;;;;;;;5014439;28;20634;-58
2022/10/14 06:57:48;;;;;;;22.07;19.83;;;12.20;99.90;;;;;;5014668;28;20172;-55
2022/10/14 07:00:14;;;;;;;20.67;18.40;;;12.20;99.90;;;;;;5014388;28;20272;-58
2022/10/14 07:02:40;;;;;;;20.20;18.10;;;12.10;99.90;;;;;;5014181;28;20634;-58
2022/10/14 07:05:06;;;;;;;20.67;18.67;;;;;;;;;;5012624;28;20169;-57
2022/10/14 07:07:32;;;;;;;20.30;18.27;;;;;;;;;;5004519;28;20204;-56
2022/10/14 07:09:58;;;;;;;23.03;20.60;;;12.40;99.90;;;;;;5012401;28;20235;-56
2022/10/14 07:12:24;;;;;;;24.63;21.03;;;12.50;99.90;;;;;;5014407;28;20185;-57
2022/10/14 07:14:50;;;;;;;24.07;21.53;;;12.90;99.90;;;;;;5013619;28;20670;-58
2022/10/14 07:17:16;;;;;;;20.83;18.63;;;12.40;99.90;;;;;;5014883;28;20183;-60
2022/10/14 07:19:41;;;;;;;19.67;17.57;;;12.50;99.90;;;;;;5014724;28;20193;-60
2022/10/14 07:22:07;;;;;;;22.47;18.70;;;12.20;99.90;;;;;;5015650;28;20207;-59
2022/10/14 07:24:33;;;;;;;18.33;16.50;;;;;;;;;;5014418;28;20275;-58
2022/10/14 07:27:00;;;;;;;23.53;19.60;;;;;;;;;;5014296;28;20592;-57
2022/10/14 07:29:26;;;;;;;28.60;23.80;;;12.60;99.90;;;;;;5013861;28;20199;-58
2022/10/14 07:31:52;;;;;;;20.63;18.03;;;12.60;99.90;;;;;;5014057;28;20182;-56
2022/10/14 07:34:18;;;;;;;21.73;17.70;;;12.70;99.90;;;;;;5013784;28;20279;-58
2022/10/14 07:36:43;;;;;;;20.40;18.37;;;12.80;99.90;;;;;;5013817;28;20181;-58
2022/10/14 07:39:09;;;;;;;20.13;18.13;;;12.80;99.90;;;;;;5013958;28;20259;-59
2022/10/14 07:41:35;;;;;;;22.33;20.03;;;12.70;99.90;;;;;;5013891;28;20177;-56
2022/10/14 07:44:05;;;;;;;18.37;16.53;;;12.80;99.90;;;;;;5013811;28;20542;-57
2022/10/14 07:46:33;;;;;;;20.40;18.30;;;12.80;99.90;;;;;;5013889;28;20188;-57
2022/10/14 07:49:06;;;;;;;20.63;18.50;;;12.90;99.90;;;;;;5016776;28;20527;-58
2022/10/14 07:51:32;;;;;;;18.70;16.80;;;12.90;99.90;;;;;;5013073;28;20183;-57
2022/10/14 07:54:00;;;;;;;18.17;16.33;;;13.00;99.90;;;;;;5013185;28;20174;-57
2022/10/14 07:56:26;;;;;;;19.07;17.13;;;13.00;99.90;;;;;;5013721;28;20202;-58
2022/10/14 07:58:52;;;;;;;18.37;16.47;;;13.10;99.90;;;;;;5013248;28;20205;-60
2022/10/14 08:01:18;;;;;;;21.27;19.07;;;13.10;99.90;;;;;;5013015;28;20230;-59
2022/10/14 08:03:45;;;;;;;18.70;16.90;;;13.10;99.90;;;;;;5013418;28;20263;-59
2022/10/14 08:06:11;;;;;;;18.67;16.87;;;13.10;99.90;;;;;;5013631;28;20183;-59
2022/10/14 08:08:37;;;;;;;19.13;17.13;;;13.00;99.90;;;;;;5013226;28;20177;-60
2022/10/14 08:11:10;;;;;;;19.97;17.83;;;13.10;99.90;;;;;;5013250;28;20214;-59
2022/10/14 08:13:37;;;;;;;19.67;17.27;;;;;;;;;;5012922;28;20181;-60
2022/10/14 08:16:02;;;;;;;17.70;15.87;;;13.10;99.90;;;;;;5013248;28;20207;-59
2022/10/14 08:18:28;;;;;;;19.40;17.43;;;13.20;99.90;;;;;;5012932;28;20183;-60
2022/10/14 08:20:54;;;;;;;18.70;16.70;;;13.30;99.90;;;;;;5012130;28;20644;-60
2022/10/14 08:23:20;;;;;;;19.40;17.37;;;13.30;99.90;;;;;;5012057;28;20174;-58
2022/10/14 08:25:49;;;;;;;16.77;15.03;;;13.40;99.90;;;;;;5012474;28;20186;-59
2022/10/14 08:28:15;;;;;;;16.83;15.07;;;13.40;99.90;;;;;;5012644;28;20175;-60
2022/10/14 08:30:40;;;;;;;16.40;14.80;;;13.40;99.90;;;;;;5012879;28;20578;-59
2022/10/14 08:33:06;;;;;;;18.20;16.33;;;13.50;99.90;;;;;;5012442;28;20183;-61
2022/10/14 08:35:31;;;;;;;16.50;14.80;;;13.50;99.90;;;;;;5012705;28;20204;-57
2022/10/14 08:37:58;;;;;;;16.63;15.03;;;13.50;99.90;;;;;;5010825;28;20718;-60
2022/10/14 08:40:29;;;;;;;14.27;12.97;;;13.50;99.90;;;;;;5011322;28;20246;-58
2022/10/14 08:43:06;;;;;;;15.20;13.80;;;13.70;99.90;;;;;;5012334;28;20172;-58
2022/10/14 08:45:34;;;;;;;15.17;13.67;;;13.80;99.90;;;;;;5011350;28;20740;-58
2022/10/14 08:48:03;;;;;;;16.20;14.53;;;14.50;99.90;;;;;;5012611;28;20184;-58
2022/10/14 08:50:43;;;;;;;13.60;12.27;;;14.00;99.90;;;;;;5012140;28;20220;-56
2022/10/14 08:53:31;;;;;;;14.47;13.07;;;14.30;99.90;;;;;;5012335;28;20184;-56
2022/10/14 08:55:59;;;;;;;13.93;12.63;;;14.40;99.90;;;;;;5012372;28;20203;-57
2022/10/14 08:58:37;;;;;;;13.87;12.50;;;14.50;99.90;;;;;;5012450;28;20692;-56
2022/10/14 09:01:17;;;;;;;12.03;10.80;;;14.40;99.90;;;;;;5011109;28;20196;-59
2022/10/14 09:03:43;;;;;;;12.27;11.00;;;14.50;99.90;;;;;;5012349;28;20227;-57
2022/10/14 09:06:21;;;;;;;15.10;13.70;;;14.70;99.90;;;;;;5012478;28;20181;-58
2022/10/14 09:08:48;;;;;;;15.63;12.17;;;14.80;99.90;;;;;;5012081;28;20270;-57
2022/10/14 09:11:18;;;;;;;13.27;12.07;;;14.70;99.90;;;;;;5011901;28;20226;-58
2022/10/14 09:13:48;;;;;;;13.60;12.10;;;14.60;99.90;;;;;;5011433;28;20242;-58
2022/10/14 09:16:24;;;;;;;13.87;12.50;;;14.70;99.90;;;;;;5012482;28;20220;-60
2022/10/14 09:19:07;;;;;;;12.20;10.90;;;14.70;99.90;;;;;;5011688;28;20172;-57
2022/10/14 09:21:36;;;;;;;12.20;11.00;;;14.30;99.90;;;;;;5012349;28;20169;-59
2022/10/14 09:24:01;;;;;;;11.43;10.23;;;14.70;99.90;;;;;;5007872;28;20172;-58
2022/10/14 09:26:41;;;;;;;11.87;10.47;;;14.90;99.90;;;;;;5011934;28;20177;-60
2022/10/14 09:29:24;;;;;;;13.47;12.17;;;15.00;99.90;;;;;;5011861;28;20169;-60
2022/10/14 09:31:50;;;;;;;13.20;11.90;;;15.30;99.90;;;;;;5011394;28;20181;-60
2022/10/14 09:34:21;;;;;;;10.90;9.90;;;15.10;99.90;;;;;;5011374;28;20216;-60
2022/10/14 09:36:48;;;;;;;11.73;10.53;;;14.90;99.90;;;;;;5012015;28;20530;-60
2022/10/14 09:39:14;;;;;;;11.47;10.37;;;15.00;99.90;;;;;;5011796;28;20259;-60
2022/10/14 09:41:51;;;;;;;11.37;10.23;;;15.10;99.90;;;;;;5011937;28;20176;-60
2022/10/14 09:44:24;;;;;;;10.57;9.57;;;15.30;99.90;;;;;;5011451;28;20638;-59
2022/10/14 09:46:55;;;;;;;10.87;9.87;;;15.50;99.90;;;;;;5011730;28;20179;-60
2022/10/14 09:49:44;;;;;;;12.47;10.80;;;15.40;99.90;;;;;;5011661;28;20211;-61
2022/10/14 09:52:20;;;;;;;10.53;9.53;;;;;;;;;;5011801;28;20647;-60
2022/10/14 09:54:53;;;;;;;11.50;10.30;;;15.40;99.90;;;;;;5011530;28;20303;-60
2022/10/14 09:57:19;;;;;;;12.30;11.13;;;15.30;99.90;;;;;;5011573;28;20169;-60
2022/10/14 09:59:53;;;;;;;12.17;10.97;;;15.10;99.90;;;;;;5011553;28;20247;-60
2022/10/14 10:02:35;;;;;;;13.87;11.53;;;15.00;99.90;;;;;;5011536;28;20172;-60
2022/10/14 10:05:25;;;;;;;11.43;10.33;;;14.80;99.90;;;;;;5011469;28;20176;-60
2022/10/14 10:08:03;;;;;;;12.90;11.57;;;14.70;99.90;;;;;;5011331;28;20181;-60
2022/10/14 10:10:29;;;;;;;11.60;10.50;;;14.90;99.90;;;;;;5011543;28;20266;-60
2022/10/14 10:12:59;;;;;;;11.13;10.03;;;15.10;99.90;;;;;;5011391;28;20263;-60
2022/10/14 10:15:25;;;;;;;12.67;11.37;;;15.20;99.90;;;;;;5011059;28;20196;-59
2022/10/14 10:17:51;;;;;;;11.77;10.63;;;15.20;99.90;;;;;;5009919;28;20181;-60
2022/10/14 10:20:27;;;;;;;11.10;10.00;;;15.20;99.90;;;;;;5011239;28;20197;-60
2022/10/14 10:22:54;;;;;;;11.03;9.93;;;15.40;99.90;;;;;;5012142;28;20173;-59
2022/10/14 10:25:25;;;;;;;11.47;10.37;;;15.50;99.90;;;;;;5015794;28;20177;-60
2022/10/14 10:27:51;;;;;;;11.43;10.27;;;15.70;99.90;;;;;;5015565;28;20186;-60
2022/10/14 10:30:17;;;;;;;11.57;10.40;;;15.80;99.90;;;;;;5015315;28;20197;-60
2022/10/14 10:32:53;;;;;;;11.90;10.37;;;15.70;99.90;;;;;;5015090;28;20177;-60
2022/10/14 10:35:33;;;;;;;11.60;10.40;;;15.70;99.90;;;;;;5014986;28;20215;-61
2022/10/14 10:38:29;;;;;;;10.70;9.70;;;15.70;99.90;;;;;;5014907;28;20215;-60
2022/10/14 10:41:23;;;;;;;11.60;10.40;;;15.70;99.90;;;;;;5014892;28;20200;-60
2022/10/14 10:44:31;;;;;;;10.77;9.73;;;15.90;99.90;;;;;;5014686;28;20228;-60
2022/10/14 10:47:10;;;;;;;12.47;10.10;;;16.30;99.90;;;;;;5015106;28;20181;-59
2022/10/14 10:52:55;;;;;;;10.83;9.83;;;16.30;99.90;;;;;;5011049;28;20235;-58
2022/10/14 10:55:55;;;;;;;9.83;8.93;;;16.30;99.90;;;;;;4845982;29;20303;-59
2022/10/14 10:58:42;;;;;;;11.10;8.30;;;16.50;99.90;;;;;;4801070;29;20199;-61
2022/10/14 11:01:36;;;;;;;13.67;10.13;;;17.50;99.90;;;;;;4804351;29;20235;-61
2022/10/14 11:04:39;;;;;;;9.93;8.97;;;18.00;99.90;;;;;;4804462;29;20186;-58
2022/10/14 11:13:34;;;;;;;7.77;7.03;;;18.30;99.90;;;;;;4804696;29;20690;-59
2022/10/14 11:16:21;;;;;;;9.77;7.13;;;18.40;99.90;;;;;;4804561;29;20223;-60
2022/10/14 11:18:56;;;;;;;9.53;8.10;;;18.60;99.90;;;;;;4804514;29;20188;-59
2022/10/14 11:21:55;;;;;;;8.80;7.90;;;18.50;99.90;;;;;;4804661;29;20208;-61
2022/10/14 11:24:31;;;;;;;9.77;8.10;;;18.30;99.90;;;;;;4795068;29;20200;-60
2022/10/14 11:27:42;;;;;;;9.27;7.53;;;18.80;99.90;;;;;;4802624;29;20187;-61
2022/10/14 11:30:14;;;;;;;9.02;7.20;;;19.40;99.90;;;;;;4750925;30;20223;-60
2022/10/14 11:32:51;;;;;;;6.63;5.97;;;19.60;99.90;;;;;;4856662;29;20207;-58
2022/10/14 11:35:54;;;;;;;7.43;6.72;;;19.60;99.90;;;;;;4918463;29;20211;-59
2022/10/14 11:38:41;;;;;;;7.15;6.55;;;20.00;99.90;;;;;;4933838;29;20695;-60
2022/10/14 11:41:25;;;;;;;6.70;6.10;;;20.30;99.90;;;;;;4934171;29;20215;-61
2022/10/14 11:44:14;;;;;;;6.63;6.03;;;20.60;99.90;;;;;;4933373;29;20198;-59
2022/10/14 11:46:45;;;;;;;7.38;6.03;;;21.00;99.90;;;;;;4934040;29;20192;-60
2022/10/14 11:49:21;;;;;;;7.50;6.80;;;21.60;99.90;;;;;;4933790;29;20187;-61
2022/10/14 11:52:01;;;;;;;6.60;6.00;;;22.10;99.90;;;;;;4934023;29;20274;-59
2022/10/14 11:54:42;;;;;;;6.28;5.65;;;21.90;99.90;;;;;;4933054;29;20234;-61
2022/10/14 11:57:16;;;;;;;7.50;5.35;;;22.70;99.90;;;;;;4933980;29;20175;-62
2022/10/14 12:00:04;;;;;;;6.10;5.50;;;23.60;99.90;;;;;;4918674;29;20220;-60
2022/10/14 12:02:42;;;;;;;6.00;5.50;;;27.70;99.90;;;;;;4914756;29;20184;-62
2022/10/14 12:05:17;;;;;;;5.85;5.25;;;23.70;99.90;;;;;;4914317;29;20593;-56
2022/10/14 12:08:16;;;;;;;5.82;5.30;;;24.20;99.90;;;;;;4992620;28;20595;-60
2022/10/14 12:10:46;;;;;;;5.13;4.45;;;25.60;99.90;;;;;;4983111;28;20217;-61
2022/10/14 12:13:32;;;;;;;5.20;4.72;;;26.80;99.90;;;;;;4995407;28;20169;-59
2022/10/14 12:15:59;;;;;;;6.72;4.90;;;27.90;99.90;;;;;;5013300;28;20203;-60
2022/10/14 12:18:26;;;;;;;4.85;4.20;;;27.80;99.90;;;;;;5013033;28;20775;-62
2022/10/14 12:21:07;;;;;;;5.93;4.28;;;26.80;99.90;;;;;;5013242;28;20189;-62
2022/10/14 12:23:45;;;;;;;4.57;4.18;;;26.20;99.90;;;;;;5012719;28;20264;-60
2022/10/14 12:26:23;;;;;;;5.55;4.70;;;25.60;99.90;;;;;;5012718;28;20172;-59
2022/10/14 12:28:50;;;;;;;5.47;4.90;;;24.70;99.90;;;;;;5012762;28;20181;-61
2022/10/14 12:31:34;;;;;;;5.82;4.43;;;24.20;99.90;;;;;;5012942;28;20192;-61
2022/10/14 12:34:14;;;;;;;4.45;4.05;;;23.40;99.90;;;;;;5012427;28;20224;-60
2022/10/14 12:36:45;;;;;;;5.70;5.10;;;23.10;99.90;;;;;;5011274;28;20222;-59
2022/10/14 12:39:17;;;;;;;4.38;3.95;;;22.80;99.90;;;;;;5012091;28;20199;-60
2022/10/14 12:41:57;;;;;;;7.50;5.15;;;22.80;99.90;;;;;;5011348;28;20215;-60
2022/10/14 12:44:31;;;;;;;9.60;5.50;;;23.00;99.90;;;;;;5012444;28;20214;-60
2022/10/14 12:46:57;;;;;;;5.03;4.57;;;23.00;99.90;;;;;;5012658;28;20177;-63
2022/10/14 12:49:35;;;;;;;5.70;4.30;;;24.00;99.90;;;;;;5011796;28;20180;-59
2022/10/14 12:52:07;;;;;;;5.22;3.80;;;25.10;99.90;;;;;;5012477;28;20243;-60
2022/10/14 12:54:36;;;;;;;5.25;4.43;;;25.50;99.90;;;;;;5010873;28;20227;-62
2022/10/14 12:57:05;;;;;;;6.95;5.28;;;26.10;99.90;;;;;;5010481;28;20176;-60
2022/10/14 12:59:38;;;;;;;5.25;4.80;;;26.70;99.90;;;;;;5007882;28;20263;-61
2022/10/14 13:02:34;;;;;;;4.70;4.10;;;27.20;99.90;;;;;;5011124;28;20181;-60
2022/10/14 13:05:07;;;;;;;4.53;3.80;;;27.70;99.90;;;;;;5010712;28;20176;-59